CheckWX is a tool to help pilots better visualize weather data.  It is not intended as a substitute for an official pre-flight weather briefing.

06:05:13 UTC

KSSF METAR
Stinson Municipal Airport
San Antonio, Texas, USA
Current

12 mins ago

KSSF 260553Z AUTO 07003KT 10SM OVC100 24/19 A3003 RMK AO2 SLP155 T02390194 10283 20239 403390222 51018
Observed
Jun-26 @ 05:53 UTC
Wind
  • 070° at 3 KTS
Visibility
10 SM
Flight Rules
VFR
Cloud Levels
  • Overcast at 10,000' AGL
Temperature
24°C / 75°F
Dewpoint
19°C / 66°F
Humidity
74%
Altimeter
30.03" Hg
Pressure
1016.92 hPa
Previous

1 hour ago

KSSF 260453Z AUTO 09004KT 10SM CLR 24/19 A3003 RMK AO2 SLP156 T02390189
Observed
Jun-26 @ 04:53 UTC
Wind
  • 090° at 4 KTS
Visibility
10 SM
Flight Rules
VFR
Cloud Levels
  • Clear skies
Temperature
24°C / 75°F
Dewpoint
19°C / 66°F
Humidity
74%
Altimeter
30.03" Hg
Pressure
1016.92 hPa
Previous

2 hours ago

KSSF 260353Z AUTO 08006KT 10SM CLR 24/19 A3001 RMK AO2 SLP149 T02440189
Observed
Jun-26 @ 03:53 UTC
Wind
  • 080° at 6 KTS
Visibility
10 SM
Flight Rules
VFR
Cloud Levels
  • Clear skies
Temperature
24°C / 75°F
Dewpoint
19°C / 66°F
Humidity
74%
Altimeter
30.01" Hg
Pressure
1016.22 hPa